createdAt,value
2019-02-21T00:00:42.636Z,0.36
2019-02-21T00:03:12.241Z,0.34
2019-02-21T00:05:41.731Z,0.39
2019-02-21T00:08:11.257Z,0.40
2019-02-21T00:10:40.776Z,0.45
2019-02-21T00:13:10.353Z,0.47
2019-02-21T00:15:39.848Z,0.55
2019-02-21T00:18:09.345Z,0.53
2019-02-21T00:20:38.863Z,0.55
2019-02-21T00:23:08.373Z,0.60
2019-02-21T00:25:37.882Z,0.83
2019-02-21T00:28:07.366Z,0.73
2019-02-21T00:33:37.651Z,0.62
2019-02-21T00:36:07.183Z,0.70
2019-02-21T00:38:36.694Z,0.71
2019-02-21T00:41:06.558Z,0.69
2019-02-21T00:43:36.133Z,0.69
2019-02-21T00:46:05.627Z,0.70
2019-02-21T00:48:35.159Z,0.73
2019-02-21T00:54:05.572Z,0.38
2019-02-21T00:56:35.071Z,0.63
2019-02-21T00:59:04.656Z,0.59
2019-02-21T01:01:34.150Z,0.62
2019-02-21T01:04:03.730Z,0.61
2019-02-21T01:06:52.553Z,0.61
2019-02-21T01:09:41.399Z,0.62
2019-02-21T01:12:10.887Z,0.58
2019-02-21T01:14:40.409Z,0.77
2019-02-21T01:17:09.905Z,0.91
2019-02-21T01:19:58.760Z,0.84
2019-02-21T01:22:28.252Z,0.66
2019-02-21T01:24:57.766Z,0.78
2019-02-21T01:27:27.269Z,0.88
2019-02-21T01:29:56.774Z,0.64
2019-02-21T01:32:26.273Z,0.50
2019-02-21T01:34:55.785Z,0.44
2019-02-21T01:37:25.271Z,0.43
2019-02-21T01:39:55.002Z,0.42
2019-02-21T01:42:24.561Z,0.44
2019-02-21T01:45:13.411Z,0.41
2019-02-21T01:47:42.915Z,0.42
2019-02-21T01:50:12.425Z,0.40
2019-02-21T01:52:41.943Z,0.36
2019-02-21T01:55:11.433Z,0.34
2019-02-21T01:57:41.932Z,0.36
2019-02-21T02:00:13.200Z,0.42
2019-02-21T02:02:42.715Z,0.44
2019-02-21T02:05:12.284Z,0.39
2019-02-21T02:07:41.777Z,0.41
2019-02-21T02:10:11.427Z,0.32
2019-02-21T02:13:00.278Z,0.26
2019-02-21T02:15:29.788Z,0.23
2019-02-21T02:17:59.296Z,0.24
2019-02-21T02:20:28.803Z,0.29
2019-02-21T02:22:58.298Z,0.29
2019-02-21T02:25:27.846Z,0.20
2019-02-21T02:27:57.362Z,0.45
2019-02-21T02:30:27.923Z,0.33
2019-02-21T02:32:57.418Z,0.32
2019-02-21T02:35:26.947Z,0.37
2019-02-21T02:37:56.434Z,0.33
2019-02-21T02:40:25.921Z,0.27
2019-02-21T02:42:56.263Z,0.30
2019-02-21T02:45:25.767Z,0.20
2019-02-21T02:47:55.266Z,0.06
2019-02-21T02:50:24.788Z,-0.06
2019-02-21T02:52:54.305Z,0.04
2019-02-21T02:55:24.619Z,-0.04
2019-02-21T02:57:54.142Z,0.01
2019-02-21T03:00:23.656Z,-0.01
2019-02-21T03:02:53.192Z,0.02
2019-02-21T03:05:22.700Z,0.04
2019-02-21T03:08:12.202Z,-0.02
2019-02-21T03:10:41.720Z,-0.90
2019-02-21T03:13:30.566Z,-0.10
2019-02-21T03:16:00.105Z,-0.11
2019-02-21T03:18:29.618Z,-0.17
2019-02-21T03:20:59.137Z,-0.23
2019-02-21T03:23:28.645Z,-0.18
2019-02-21T03:25:58.161Z,-0.11
2019-02-21T03:28:27.660Z,0.03
2019-02-21T03:30:57.201Z,0.11
2019-02-21T03:33:26.688Z,0.27
2019-02-21T03:35:56.767Z,0.05
2019-02-21T03:38:26.270Z,0.03
2019-02-21T03:40:55.764Z,0.02
2019-02-21T03:43:25.301Z,-0.03
2019-02-21T03:45:54.817Z,-0.04
2019-02-21T03:48:25.207Z,-0.10
2019-02-21T03:50:54.721Z,-0.14
2019-02-21T03:53:24.218Z,-0.18
2019-02-21T03:56:13.070Z,-0.22
2019-02-21T03:58:55.759Z,-0.23
2019-02-21T04:01:44.682Z,-0.17
2019-02-21T04:04:14.181Z,-0.60
2019-02-21T04:06:43.804Z,-0.38
2019-02-21T04:09:13.340Z,-0.43
2019-02-21T04:11:42.887Z,-0.48
2019-02-21T04:14:12.478Z,-0.53
2019-02-21T04:16:42.073Z,-0.51
2019-02-21T04:19:11.995Z,-0.62
2019-02-21T04:21:41.530Z,-0.64
2019-02-21T04:24:11.039Z,-0.70
2019-02-21T04:26:40.555Z,-0.69
2019-02-21T04:29:10.165Z,-0.76
2019-02-21T04:31:40.440Z,-0.87
2019-02-21T04:34:09.955Z,-0.52
2019-02-21T04:36:58.809Z,-0.85
2019-02-21T04:39:28.306Z,-1.98
2019-02-21T04:42:17.169Z,-0.90
2019-02-21T04:44:59.481Z,-2.01
2019-02-21T04:47:29.005Z,-1.08
2019-02-21T04:49:58.517Z,-1.20
2019-02-21T04:52:28.034Z,-1.01
2019-02-21T04:54:57.531Z,-1.16
2019-02-21T04:57:27.047Z,-1.16
2019-02-21T04:59:56.576Z,-1.22
2019-02-21T05:02:29.560Z,-1.34
2019-02-21T05:05:17.800Z,-1.17
2019-02-21T05:07:58.432Z,-1.21
2019-02-21T05:13:49.040Z,-1.35
2019-02-21T05:16:18.565Z,-1.36
2019-02-21T05:18:48.103Z,-1.39
2019-02-21T05:21:17.647Z,-1.48
2019-02-21T05:23:47.235Z,-1.34
2019-02-21T05:29:16.917Z,-1.38
2019-02-21T05:31:48.060Z,-1.53
2019-02-21T05:34:19.215Z,-1.60
2019-02-21T05:39:55.450Z,-1.56
2019-02-21T05:42:26.627Z,-1.29
2019-02-21T05:45:28.282Z,-1.47
2019-02-21T05:48:02.506Z,-1.49
2019-02-21T05:50:33.672Z,-1.43
2019-02-21T05:53:07.470Z,-1.52
2019-02-21T05:55:38.680Z,-1.59
2019-02-21T06:01:11.887Z,-1.55
2019-02-21T06:03:45.479Z,-1.59
2019-02-21T06:06:31.660Z,-1.33
2019-02-21T06:09:11.599Z,-1.55
2019-02-21T06:11:57.466Z,-1.60
2019-02-21T06:14:59.026Z,-1.63
2019-02-21T06:20:29.600Z,-1.32
2019-02-21T06:23:09.569Z,-1.53
2019-02-21T06:25:51.144Z,-1.57
2019-02-21T06:28:19.383Z,-1.57
2019-02-21T06:30:56.594Z,-1.55
2019-02-21T06:33:28.262Z,-1.53
2019-02-21T06:35:57.317Z,-1.44
2019-02-21T06:38:26.837Z,-1.38
2019-02-21T06:40:56.339Z,-1.35
2019-02-21T06:43:25.854Z,-1.32
2019-02-21T06:45:57.931Z,-0.99
2019-02-21T06:48:26.628Z,-0.41
2019-02-21T06:50:56.146Z,-0.03
2019-02-21T06:53:25.680Z,1.14
2019-02-21T06:55:55.207Z,2.39
2019-02-21T06:58:24.711Z,3.36
2019-02-21T07:00:54.859Z,4.10
2019-02-21T07:03:24.398Z,5.18
2019-02-21T07:05:53.886Z,5.36
2019-02-21T07:08:25.199Z,5.24
2019-02-21T07:11:05.415Z,4.65
2019-02-21T07:13:27.070Z,4.27
2019-02-21T07:15:58.442Z,4.49
2019-02-21T07:18:28.920Z,6.20
2019-02-21T07:20:58.651Z,6.83
2019-02-21T07:23:32.693Z,7.60
2019-02-21T07:26:19.197Z,6.14
2019-02-21T07:28:48.714Z,4.87
2019-02-21T07:31:28.057Z,4.26
2019-02-21T07:33:49.430Z,4.03
2019-02-21T07:36:18.948Z,3.48
2019-02-21T07:38:48.456Z,3.43
2019-02-21T07:41:18.798Z,4.27
2019-02-21T07:43:48.357Z,3.99
2019-02-21T07:46:17.905Z,3.94
2019-02-21T07:48:47.372Z,4.35
2019-02-21T07:51:16.896Z,4.23
2019-02-21T07:53:46.404Z,4.17
2019-02-21T07:56:15.929Z,4.50
2019-02-21T07:58:45.442Z,5.44
2019-02-21T08:01:17.350Z,8.59
2019-02-21T08:03:48.528Z,10.52
2019-02-21T08:06:19.902Z,11.34
2019-02-21T08:12:10.568Z,13.83
2019-02-21T08:14:40.078Z,13.84
2019-02-21T08:17:09.582Z,13.44
2019-02-21T08:19:39.091Z,14.13
2019-02-21T08:22:08.609Z,13.57
2019-02-21T08:24:38.118Z,14.00
2019-02-21T08:27:07.850Z,13.89
2019-02-21T08:29:37.388Z,13.92
2019-02-21T08:32:06.947Z,12.99
2019-02-21T08:34:40.798Z,12.91
2019-02-21T08:37:10.295Z,13.81
2019-02-21T08:39:40.007Z,14.22
2019-02-21T08:42:09.495Z,14.12
2019-02-21T08:44:38.991Z,14.25
2019-02-21T08:47:08.500Z,14.63
2019-02-21T08:49:38.015Z,15.06
2019-02-21T08:52:07.532Z,16.37
2019-02-21T08:54:37.042Z,15.75
2019-02-21T08:57:06.565Z,15.79
2019-02-21T08:59:36.146Z,15.33
2019-02-21T09:02:05.798Z,16.00
2019-02-21T09:04:35.351Z,16.40
2019-02-21T09:07:06.173Z,16.51
2019-02-21T09:09:35.759Z,16.97
2019-02-21T09:12:05.796Z,17.42
2019-02-21T09:14:35.422Z,18.60
2019-02-21T09:17:04.930Z,17.61
2019-02-21T09:19:36.737Z,18.50
2019-02-21T09:22:06.021Z,19.47
2019-02-21T09:24:40.106Z,20.01
2019-02-21T09:27:26.058Z,22.34
2019-02-21T09:29:56.284Z,21.38
2019-02-21T09:32:25.781Z,23.42
2019-02-21T09:34:55.303Z,23.52
2019-02-21T09:37:24.791Z,21.02
2019-02-21T09:39:54.310Z,19.68
2019-02-21T09:42:24.710Z,17.53
2019-02-21T09:45:34.443Z,18.87
2019-02-21T09:48:04.007Z,19.33
2019-02-21T09:50:33.759Z,17.65
2019-02-21T09:53:03.256Z,17.48
2019-02-21T09:55:33.348Z,16.84
2019-02-21T09:58:03.092Z,16.12
2019-02-21T10:00:32.641Z,16.03
2019-02-21T10:03:02.135Z,16.62
2019-02-21T10:06:10.196Z,15.55
2019-02-21T10:08:39.696Z,15.61
2019-02-21T10:11:11.352Z,15.31
2019-02-21T10:13:40.442Z,16.11
2019-02-21T10:16:09.947Z,15.83
2019-02-21T10:18:39.472Z,14.67
2019-02-21T10:21:09.062Z,14.14
2019-02-21T10:23:38.583Z,13.89
2019-02-21T10:26:27.427Z,14.50
2019-02-21T10:28:56.935Z,14.37
2019-02-21T10:31:26.454Z,14.20
2019-02-21T10:34:15.323Z,16.30
2019-02-21T10:36:44.839Z,15.28
2019-02-21T10:39:14.408Z,15.25
2019-02-21T10:41:43.925Z,14.53
2019-02-21T10:44:13.429Z,15.38
2019-02-21T10:47:02.292Z,15.73
2019-02-21T10:49:31.786Z,15.89
2019-02-21T10:52:01.301Z,15.85
2019-02-21T10:54:30.803Z,17.26
2019-02-21T10:57:00.325Z,16.59
2019-02-21T10:59:29.821Z,17.97
2019-02-21T11:01:59.420Z,19.03
2019-02-21T11:04:28.916Z,19.45
2019-02-21T11:06:58.496Z,19.38
2019-02-21T11:09:28.092Z,19.37
2019-02-21T11:11:57.683Z,19.77
2019-02-21T11:14:27.669Z,17.53
2019-02-21T11:16:57.265Z,17.49
2019-02-21T11:19:26.790Z,17.98
2019-02-21T11:21:56.299Z,16.05
2019-02-21T11:24:25.798Z,14.64
2019-02-21T11:26:56.162Z,16.79
2019-02-21T11:29:39.009Z,18.40
2019-02-21T11:32:08.792Z,17.57
2019-02-21T11:34:38.292Z,17.87
2019-02-21T11:37:07.806Z,18.15
2019-02-21T11:39:37.409Z,18.75
2019-02-21T11:42:26.281Z,19.55
2019-02-21T11:44:55.778Z,19.17
2019-02-21T11:47:25.293Z,23.42
2019-02-21T11:49:54.807Z,21.79
2019-02-21T11:52:24.368Z,22.54
2019-02-21T11:54:53.866Z,21.97
2019-02-21T11:57:23.379Z,24.65
2019-02-21T11:59:52.899Z,23.36
2019-02-21T12:02:22.453Z,19.44
2019-02-21T12:04:51.989Z,18.34
2019-02-21T12:07:21.519Z,21.30
2019-02-21T12:10:31.235Z,20.96
2019-02-21T12:13:20.095Z,24.38
2019-02-21T12:16:02.315Z,22.22
2019-02-21T12:18:31.828Z,21.58
2019-02-21T12:21:01.335Z,21.31
2019-02-21T12:23:30.845Z,22.85
2019-02-21T12:26:00.349Z,20.07
2019-02-21T12:28:29.857Z,19.37
2019-02-21T12:30:59.350Z,18.21
2019-02-21T12:33:29.474Z,17.47
2019-02-21T12:35:59.653Z,16.80
2019-02-21T12:38:29.223Z,16.68
2019-02-21T12:40:58.730Z,16.91
2019-02-21T12:43:28.241Z,16.02
2019-02-21T12:46:00.334Z,16.06
2019-02-21T12:48:29.853Z,16.65
2019-02-21T12:50:59.353Z,17.54
2019-02-21T12:53:41.430Z,17.63
2019-02-21T12:56:10.967Z,17.03
2019-02-21T12:58:40.480Z,16.57
2019-02-21T13:01:09.989Z,15.76
2019-02-21T13:03:39.512Z,15.57
2019-02-21T13:09:10.438Z,15.18
2019-02-21T13:11:39.934Z,15.87
2019-02-21T13:14:09.446Z,15.25
2019-02-21T13:16:38.946Z,15.04
2019-02-21T13:19:27.828Z,14.73
2019-02-21T13:22:10.262Z,14.22
2019-02-21T13:24:39.772Z,14.40
2019-02-21T13:27:09.294Z,14.43
2019-02-21T13:29:38.798Z,14.37
2019-02-21T13:32:08.325Z,14.65
2019-02-21T13:34:37.833Z,13.97
2019-02-21T13:37:07.356Z,13.93
2019-02-21T13:39:36.864Z,14.17
2019-02-21T13:42:06.960Z,14.63
2019-02-21T13:44:36.479Z,14.67
2019-02-21T13:47:25.322Z,14.75
2019-02-21T13:49:54.813Z,14.73
2019-02-21T13:52:24.332Z,14.41
2019-02-21T13:54:53.844Z,15.23
2019-02-21T13:57:23.331Z,14.63
2019-02-21T13:59:52.844Z,14.58
2019-02-21T14:02:23.009Z,14.13
2019-02-21T14:04:52.529Z,13.90
2019-02-21T14:07:22.054Z,14.31
2019-02-21T14:09:51.541Z,14.27
2019-02-21T14:12:21.138Z,14.55
2019-02-21T14:14:51.449Z,14.85
2019-02-21T14:17:20.992Z,14.03
2019-02-21T14:19:52.986Z,13.83
2019-02-21T14:22:21.765Z,13.71
2019-02-21T14:24:51.271Z,13.80
2019-02-21T14:27:40.104Z,13.54
2019-02-21T14:30:15.809Z,13.43
2019-02-21T14:32:45.333Z,13.60
2019-02-21T14:35:16.046Z,13.62
2019-02-21T14:38:27.882Z,13.45
2019-02-21T14:41:14.665Z,13.57
2019-02-21T14:43:56.843Z,13.78
2019-02-21T14:46:45.681Z,14.34
2019-02-21T14:49:15.181Z,14.40
2019-02-21T14:51:44.677Z,14.34
2019-02-21T14:54:16.408Z,14.01
2019-02-21T14:56:45.443Z,14.21
2019-02-21T14:59:14.959Z,13.54
2019-02-21T15:01:57.183Z,13.46
2019-02-21T15:04:26.731Z,13.39
2019-02-21T15:06:56.249Z,13.52
2019-02-21T15:09:25.772Z,13.54
2019-02-21T15:11:55.396Z,13.52
2019-02-21T15:14:24.883Z,13.63
2019-02-21T15:17:13.749Z,13.43
2019-02-21T15:19:43.261Z,13.09
2019-02-21T15:22:44.821Z,12.86
2019-02-21T15:25:14.405Z,12.69
2019-02-21T15:27:43.899Z,12.65
2019-02-21T15:30:23.071Z,12.76
2019-02-21T15:32:53.155Z,12.74
2019-02-21T15:35:22.737Z,12.26
2019-02-21T15:37:52.265Z,12.23
2019-02-21T15:40:21.882Z,12.04
2019-02-21T15:42:52.727Z,12.00
2019-02-21T15:45:28.359Z,12.04
2019-02-21T15:47:57.851Z,11.64
2019-02-21T15:50:27.419Z,11.84
2019-02-21T15:52:57.919Z,11.72
2019-02-21T15:55:27.711Z,11.72
2019-02-21T15:58:03.757Z,11.65
2019-02-21T16:00:28.437Z,11.68
2019-02-21T16:02:57.963Z,11.43
2019-02-21T16:05:27.508Z,11.52
2019-02-21T16:07:56.998Z,11.42
2019-02-21T16:10:28.166Z,11.14
2019-02-21T16:12:57.859Z,10.80
2019-02-21T16:15:28.696Z,10.48
2019-02-21T16:17:58.196Z,10.24
2019-02-21T16:20:27.739Z,10.10
2019-02-21T16:22:57.218Z,9.97
2019-02-21T16:25:33.067Z,9.71
2019-02-21T16:28:02.583Z,9.55
2019-02-21T16:30:52.296Z,9.31
2019-02-21T16:33:21.912Z,9.14
2019-02-21T16:35:51.400Z,8.89
2019-02-21T16:38:20.956Z,9.08
2019-02-21T16:41:09.826Z,9.14
2019-02-21T16:43:39.315Z,8.67
2019-02-21T16:46:08.856Z,8.71
2019-02-21T16:48:57.698Z,8.55
2019-02-21T16:51:27.217Z,8.03
2019-02-21T16:53:56.699Z,8.40
2019-02-21T16:56:26.712Z,7.91
2019-02-21T16:59:15.635Z,7.78
2019-02-21T17:01:45.178Z,8.25
2019-02-21T17:04:34.030Z,8.31
2019-02-21T17:07:22.860Z,7.38
2019-02-21T17:09:52.409Z,6.81
2019-02-21T17:12:21.896Z,7.08
2019-02-21T17:14:51.405Z,6.92
2019-02-21T17:17:21.012Z,6.82
2019-02-21T17:19:50.531Z,6.83
2019-02-21T17:22:51.865Z,6.81
2019-02-21T17:25:40.717Z,6.80
2019-02-21T17:28:23.566Z,6.79
2019-02-21T17:30:53.084Z,6.84
2019-02-21T17:33:41.920Z,6.83
2019-02-21T17:36:11.435Z,6.82
2019-02-21T17:38:40.942Z,6.82
2019-02-21T17:41:10.469Z,6.81
2019-02-21T17:43:39.986Z,7.44
2019-02-21T17:46:09.518Z,7.10
2019-02-21T17:48:39.014Z,6.72
2019-02-21T17:51:08.526Z,6.51
2019-02-21T17:53:38.045Z,6.37
2019-02-21T17:56:07.539Z,6.29
2019-02-21T17:58:37.024Z,6.28
2019-02-21T18:01:07.176Z,6.22
2019-02-21T18:03:36.672Z,6.32
2019-02-21T18:06:06.223Z,6.33
2019-02-21T18:08:35.718Z,6.31
2019-02-21T18:11:24.572Z,6.88
2019-02-21T18:13:54.085Z,6.52
2019-02-21T18:16:23.611Z,6.40
2019-02-21T18:18:53.105Z,6.97
2019-02-21T18:21:22.617Z,6.78
2019-02-21T18:23:52.109Z,6.57
2019-02-21T18:26:21.631Z,6.24
2019-02-21T18:28:51.179Z,6.04
2019-02-21T18:31:20.773Z,6.06
2019-02-21T18:34:09.602Z,5.91
2019-02-21T18:36:39.156Z,5.93
2019-02-21T18:39:08.778Z,5.92
2019-02-21T18:41:38.325Z,6.56
2019-02-21T18:44:07.808Z,6.23
2019-02-21T18:46:37.327Z,6.06
2019-02-21T18:49:06.891Z,6.21
2019-02-21T18:51:36.550Z,6.16
2019-02-21T18:54:06.265Z,5.89
2019-02-21T18:56:55.121Z,5.75
2019-02-21T18:59:31.825Z,5.77
2019-02-21T19:01:55.810Z,5.76
2019-02-21T19:04:44.647Z,5.75
2019-02-21T19:07:14.234Z,5.63
2019-02-21T19:09:44.480Z,5.54
2019-02-21T19:15:17.292Z,5.34
2019-02-21T19:17:46.839Z,5.98
2019-02-21T19:20:20.027Z,5.83
2019-02-21T19:22:49.621Z,5.79
2019-02-21T19:25:19.281Z,5.64
2019-02-21T19:27:48.928Z,5.38
2019-02-21T19:30:38.380Z,5.25
2019-02-21T19:33:09.244Z,5.20
2019-02-21T19:35:38.774Z,5.17
2019-02-21T19:38:10.765Z,5.01
2019-02-21T19:40:58.974Z,4.93
2019-02-21T19:43:29.062Z,4.89
2019-02-21T19:46:17.943Z,4.89
2019-02-21T19:49:00.739Z,4.11
2019-02-21T19:51:30.254Z,5.43
2019-02-21T19:53:59.742Z,5.21
2019-02-21T19:56:29.277Z,5.35
2019-02-21T19:58:58.957Z,5.40
2019-02-21T20:01:28.469Z,5.51
2019-02-21T20:03:57.969Z,5.09
2019-02-21T20:06:27.513Z,5.37
2019-02-21T20:11:56.683Z,5.49
2019-02-21T20:14:26.167Z,5.08
2019-02-21T20:16:55.712Z,5.17
2019-02-21T20:22:32.998Z,5.11
2019-02-21T20:25:34.675Z,4.75
2019-02-21T20:28:04.200Z,4.20
2019-02-21T20:30:33.687Z,4.60
2019-02-21T20:33:03.241Z,4.84
2019-02-21T20:35:32.748Z,4.87
2019-02-21T20:38:02.270Z,4.93
2019-02-21T20:40:31.748Z,4.74
2019-02-21T20:43:01.372Z,4.68
2019-02-21T20:45:30.850Z,4.70
2019-02-21T20:48:00.375Z,5.05
2019-02-21T20:50:56.435Z,5.17
2019-02-21T20:53:33.382Z,4.77
2019-02-21T20:56:02.905Z,4.13
2019-02-21T20:58:32.386Z,4.48
2019-02-21T21:01:03.149Z,4.51
2019-02-21T21:03:32.672Z,4.52
2019-02-21T21:06:02.232Z,4.69
2019-02-21T21:08:42.494Z,4.52
2019-02-21T21:11:02.976Z,4.44
2019-02-21T21:13:33.159Z,4.33
2019-02-21T21:16:02.650Z,4.28
2019-02-21T21:18:51.536Z,4.78
2019-02-21T21:21:34.143Z,4.43
2019-02-21T21:24:03.627Z,4.28
2019-02-21T21:26:33.117Z,4.12
2019-02-21T21:29:02.636Z,3.95
2019-02-21T21:31:32.124Z,3.80
2019-02-21T21:34:01.636Z,3.65
2019-02-21T21:36:42.171Z,3.60
2019-02-21T21:39:30.994Z,3.92
2019-02-21T21:42:13.452Z,3.51
2019-02-21T21:45:02.285Z,2.93
2019-02-21T21:47:31.826Z,3.89
2019-02-21T21:50:01.317Z,3.61
2019-02-21T21:52:30.833Z,3.45
2019-02-21T21:55:00.362Z,3.68
2019-02-21T21:57:29.891Z,3.58
2019-02-21T21:59:59.377Z,3.52
2019-02-21T22:02:48.813Z,3.34
2019-02-21T22:05:18.387Z,3.35
2019-02-21T22:07:49.355Z,3.42
2019-02-21T22:10:19.243Z,3.81
2019-02-21T22:16:02.154Z,3.78
2019-02-21T22:18:31.718Z,3.94
2019-02-21T22:21:01.223Z,4.05
2019-02-21T22:23:30.708Z,4.15
2019-02-21T22:26:00.255Z,4.07
2019-02-21T22:28:29.772Z,3.98
2019-02-21T22:30:59.319Z,3.90
2019-02-21T22:33:28.828Z,3.94
2019-02-21T22:36:19.553Z,3.92
2019-02-21T22:39:15.704Z,3.91
2019-02-21T22:41:52.902Z,2.92
2019-02-21T22:44:22.470Z,2.91
2019-02-21T22:46:52.014Z,3.87
2019-02-21T22:49:21.548Z,3.91
2019-02-21T22:51:51.126Z,3.87
2019-02-21T22:54:39.957Z,3.91
2019-02-21T22:57:09.477Z,3.91
2019-02-21T22:59:38.974Z,3.94
2019-02-21T23:02:08.630Z,3.96
2019-02-21T23:04:42.800Z,3.99
2019-02-21T23:07:22.617Z,3.98
2019-02-21T23:09:52.098Z,3.98
2019-02-21T23:12:21.670Z,4.02
2019-02-21T23:14:51.234Z,4.02
2019-02-21T23:17:20.765Z,4.00
2019-02-21T23:19:50.252Z,4.09
2019-02-21T23:22:19.978Z,4.03
2019-02-21T23:24:49.493Z,3.98
2019-02-21T23:27:19.029Z,4.12
2019-02-21T23:29:48.521Z,4.13
2019-02-21T23:32:18.030Z,4.08
2019-02-21T23:34:47.535Z,4.01
2019-02-21T23:37:17.062Z,4.20
2019-02-21T23:39:46.589Z,4.01
2019-02-21T23:42:16.074Z,4.01
2019-02-21T23:44:45.586Z,4.49
2019-02-21T23:47:34.436Z,4.16
2019-02-21T23:50:04.008Z,3.13
2019-02-21T23:52:52.862Z,4.38
2019-02-21T23:55:22.357Z,4.11
2019-02-21T23:57:52.205Z,4.07
